Guaymas, Mexico

7:15 PM MST on July 27, 2016 (GMT -0700)
Gen Jose Ma Yanez International | | Change Station

Elev 89 ft 27.97 °N, 110.93 °W | Updated 31 minutes ago

Overcast
Overcast
97 °F
Feels Like 119 °F
N
7
Wind Variable Wind from SSW

Today
High -- | Low -- °F
--% Chance of Precip.
Yesterday
High -- | Low -- °F
Precip. -- in
Pressure 29.69 in
Visibility 10.0 miles
Clouds Few 4000 ft
Overcast 16000 ft
Heat Index 119 °F
Dew Point 81 °F
Humidity 60%
Rainfall 0.00 in
Snow Depth Not available.
5:43 AM 7:16 PM
Last Quarter, 37% visible
METAR MMGM 280144Z 20006KT 10SM FEW040 OVC160 36/27 A2969 RMK 8/52/ HZY
Pressure 29.69 in
Visibility 10.0 miles
Clouds Few 4000 ft
Overcast 16000 ft
Heat Index 119 °F
Dew Point 81 °F
Humidity 60%
Rainfall 0.00 in
Snow Depth Not available.
5:43 AM 7:16 PM
Last Quarter, 37% visible
METAR MMGM 280144Z 20006KT 10SM FEW040 OVC160 36/27 A2969 RMK 8/52/ HZY

10-Day Weather Forecast

No radar image for this location.
×

Almanac

Astronomy

Jul. 27, 2016 Rise Set
Actual Time
Civil Twilight
Nautical Twilight
Astronomical Twilight
Moon
Length of Visible Light
Length of Day
Tomorrow will be .
, % of the Moon is Illuminated

Today's Extremes

Country Highs Country Lows

Community

WunderPhotos

Upload Photos

1,928,012 photos uploaded!

WunderBlog® & News

Nearby

Air Quality

  Air Quality AQ Index Pollutant
Not available.

Snow Depth

Station Depth Elevation

Earthquake Activity

City Distance Mag. Time & Date
Minimum magnitude displayed is 2.5.

Coastal Water Temperatures

Place Temperature

Stations

Nearby Weather Stations

Station Location Temp. Windchill Dew Point Humidity Wind Precip. Elev Updated Type